Time;durP1;ratioP1;P1;durP2;ratioP2;P2;SDS_P1;SDS_P2;PMS_P1;PMS_P2;Temp;Humidity;BMP_temperature;BMP_pressure;BME280_temperature;BME280_humidity;BME280_pressure;Samples;Min_cycle;Max_cycle;Signal;HPM_P1;HPM_P2
2023/06/27 00:00:29;;;;;;;15.70;9.40;;;;;;;16.20;89.07;98507.38;273792;1265;22376;-84
2023/06/27 00:06:50;;;;;;;13.20;9.70;;;;;;;16.07;88.94;98567.39;273202;1266;23090;-86
2023/06/27 00:12:52;;;;;;;15.80;9.60;;;;;;;16.00;88.99;98600.02;273407;1253;22153;-86
2023/06/27 00:18:54;;;;;;;13.40;8.60;;;;;;;16.11;90.02;98604.98;273730;1266;22394;-87
2023/06/27 00:24:57;;;;;;;13.10;8.20;;;;;;;16.27;90.33;98613.75;273692;1265;22187;-86
2023/06/27 00:30:58;;;;;;;12.50;8.60;;;;;;;16.36;90.56;98619.97;272993;1265;23684;-86
2023/06/27 00:37:00;;;;;;;11.00;7.90;;;;;;;16.43;91.31;98643.86;270296;1266;24487;-85
2023/06/27 00:43:02;;;;;;;18.00;8.40;;;;;;;16.49;92.16;98672.19;270368;1250;23951;-86
2023/06/27 00:49:09;;;;;;;12.50;7.80;;;;;;;16.53;93.62;98680.81;270802;1266;24138;-87
2023/06/27 00:55:12;;;;;;;15.90;9.20;;;;;;;16.55;95.03;98686.83;273328;1266;22550;-88
2023/06/27 01:01:14;;;;;;;14.80;10.10;;;;;;;16.52;94.78;98683.98;270659;1266;25476;-86
2023/06/27 01:07:23;;;;;;;13.40;9.50;;;;;;;16.54;95.11;98667.83;270182;1266;22210;-87
2023/06/27 01:13:48;;;;;;;13.90;9.70;;;;;;;16.54;96.29;98667.91;270947;1266;22693;-87
2023/06/27 01:19:52;;;;;;;15.60;10.30;;;;;;;16.47;96.57;98671.66;270066;1266;23556;-85
2023/06/27 01:26:01;;;;;;;14.30;10.10;;;;;;;16.36;97.15;98682.09;271479;1266;23669;-86
2023/06/27 01:32:08;;;;;;;15.10;10.20;;;;;;;16.30;98.58;98687.48;271093;1266;22468;-87
2023/06/27 01:38:14;;;;;;;17.80;10.60;;;;;;;16.33;99.91;98699.42;273667;1264;23395;-85
2023/06/27 01:44:18;;;;;;;13.90;9.30;;;;;;;16.34;99.91;98700.36;272274;1256;22393;-86
2023/06/27 01:50:20;;;;;;;15.00;9.00;;;;;;;16.33;100.00;98714.42;271957;1256;22541;-87
2023/06/27 01:56:22;;;;;;;14.80;10.30;;;;;;;16.39;100.00;98729.64;270029;1256;22535;-85
2023/06/27 02:02:23;;;;;;;15.40;9.50;;;;;;;16.43;100.00;98733.70;270330;1255;22566;-86
2023/06/27 02:08:25;;;;;;;17.90;10.80;;;;;;;16.41;100.00;98714.61;271983;1266;22470;-87
2023/06/27 02:14:27;;;;;;;12.20;9.90;;;;;;;16.37;100.00;98707.73;273483;1260;22190;-87
2023/06/27 02:20:28;;;;;;;14.70;10.40;;;;;;;16.38;100.00;98687.83;273556;1257;24033;-86
2023/06/27 02:26:30;;;;;;;17.60;10.00;;;;;;;16.39;100.00;98676.37;271535;1266;24257;-89
2023/06/27 02:32:32;;;;;;;13.50;9.60;;;;;;;16.36;100.00;98666.63;269909;1250;22525;-87
2023/06/27 02:38:34;;;;;;;12.40;8.90;;;;;;;16.34;100.00;98649.55;270475;1262;22187;-89
2023/06/27 02:44:36;;;;;;;13.20;10.10;;;;;;;16.33;100.00;98637.88;270912;1266;23665;-88
2023/06/27 02:50:37;;;;;;;11.80;9.90;;;;;;;16.32;100.00;98638.67;270783;1255;22520;-88
2023/06/27 02:56:39;;;;;;;12.30;9.40;;;;;;;16.32;100.00;98620.39;273649;1265;24343;-88
2023/06/27 03:02:42;;;;;;;12.90;9.30;;;;;;;16.32;100.00;98619.13;272063;1266;22450;-86
2023/06/27 03:08:44;;;;;;;12.40;7.70;;;;;;;16.32;100.00;98620.61;272580;1266;22617;-86
2023/06/27 03:14:49;;;;;;;10.40;8.30;;;;;;;16.35;100.00;98615.36;270152;1266;23554;-87
2023/06/27 03:20:51;;;;;;;10.90;8.60;;;;;;;16.37;100.00;98618.63;269942;1264;25271;-86
2023/06/27 03:26:53;;;;;;;11.10;8.10;;;;;;;16.39;100.00;98621.05;270490;1255;22581;-87
2023/06/27 03:32:55;;;;;;;11.40;8.20;;;;;;;16.40;100.00;98617.62;270649;1256;22552;-85
2023/06/27 03:38:57;;;;;;;12.40;8.90;;;;;;;16.43;100.00;98624.67;271565;1266;22381;-85
2023/06/27 03:44:59;;;;;;;11.50;8.90;;;;;;;16.46;100.00;98634.27;273808;1262;22212;-86
2023/06/27 03:51:01;;;;;;;11.30;7.70;;;;;;;16.47;100.00;98650.05;273749;1266;22409;-86
2023/06/27 03:57:03;;;;;;;9.60;8.50;;;;;;;16.50;100.00;98662.38;270498;1266;22529;-86
2023/06/27 04:03:05;;;;;;;11.60;8.90;;;;;;;16.58;100.00;98664.21;270144;1254;23695;-85
2023/06/27 04:09:07;;;;;;;13.10;8.60;;;;;;;16.64;100.00;98658.27;269685;1266;22788;-85
2023/06/27 04:15:10;;;;;;;12.60;9.70;;;;;;;16.70;100.00;98661.23;270686;1257;23821;-86
2023/06/27 04:21:12;;;;;;;13.50;9.50;;;;;;;16.75;100.00;98655.37;270841;1256;22513;-87
2023/06/27 04:27:25;;;;;;;15.30;9.20;;;;;;;16.81;100.00;98653.45;271135;1253;22562;-86
2023/06/27 04:33:28;;;;;;;12.00;8.40;;;;;;;16.82;100.00;98632.73;271727;1254;22364;-87
2023/06/27 04:39:29;;;;;;;12.30;9.50;;;;;;;16.88;100.00;98636.95;272953;1266;22546;-86
2023/06/27 04:45:31;;;;;;;14.80;9.70;;;;;;;16.98;100.00;98631.06;272825;1256;22184;-87
2023/06/27 04:51:33;;;;;;;18.70;10.50;;;;;;;17.02;100.00;98617.61;272592;1264;22197;-86
2023/06/27 04:57:34;;;;;;;13.90;9.00;;;;;;;17.11;100.00;98626.55;273738;1266;22539;-86
2023/06/27 05:03:39;;;;;;;10.70;9.00;;;;;;;17.20;100.00;98627.37;271473;1257;22625;-86
2023/06/27 05:09:41;;;;;;;12.50;10.20;;;;;;;17.33;100.00;98625.76;270776;1266;23788;-86
2023/06/27 05:15:43;;;;;;;13.10;10.80;;;;;;;17.42;100.00;98626.98;271061;1266;25584;-86
2023/06/27 05:21:45;;;;;;;18.00;10.80;;;;;;;17.47;100.00;98621.75;271239;1256;22313;-86
2023/06/27 05:27:46;;;;;;;12.60;10.40;;;;;;;17.52;100.00;98625.59;271135;1265;22576;-85
2023/06/27 05:33:48;;;;;;;18.40;10.70;;;;;;;17.55;100.00;98631.70;270917;1254;22664;-86
2023/06/27 05:39:49;;;;;;;12.40;9.20;;;;;;;17.56;100.00;98633.16;271406;1266;22577;-86
2023/06/27 05:45:51;;;;;;;13.40;8.90;;;;;;;17.56;100.00;98630.08;270354;1260;22334;-86
2023/06/27 05:51:53;;;;;;;15.30;9.20;;;;;;;17.56;100.00;98637.83;272768;1266;22400;-87
2023/06/27 05:57:55;;;;;;;14.60;9.90;;;;;;;17.60;100.00;98643.60;273367;1263;22412;-86
2023/06/27 06:03:57;;;;;;;14.00;10.50;;;;;;;17.64;100.00;98649.11;273696;1266;22313;-86
2023/06/27 06:09:58;;;;;;;14.20;11.40;;;;;;;17.68;100.00;98652.83;273682;1266;23046;-86
2023/06/27 06:16:00;;;;;;;15.00;9.40;;;;;;;17.64;100.00;98670.48;271163;1257;22569;-86
2023/06/27 06:22:02;;;;;;;13.70;10.30;;;;;;;17.50;100.00;98684.70;270839;1266;23189;-84
2023/06/27 06:28:05;;;;;;;11.30;9.20;;;;;;;17.43;100.00;98694.70;271354;1256;22171;-86
2023/06/27 06:34:07;;;;;;;10.60;9.00;;;;;;;17.34;100.00;98695.91;273274;1266;22208;-85
2023/06/27 06:40:09;;;;;;;13.10;8.40;;;;;;;17.32;100.00;98712.70;273821;1256;22601;-86
2023/06/27 06:46:11;;;;;;;12.30;8.50;;;;;;;17.31;100.00;98726.17;273722;1266;22452;-85
2023/06/27 06:52:13;;;;;;;13.60;8.00;;;;;;;17.28;100.00;98736.98;273901;1262;22294;-86
2023/06/27 06:58:16;;;;;;;14.60;7.70;;;;;;;17.22;100.00;98743.02;270733;1266;23222;-85
2023/06/27 07:04:17;;;;;;;12.30;6.60;;;;;;;17.15;100.00;98751.60;271314;1256;22516;-85
2023/06/27 07:10:19;;;;;;;8.60;6.10;;;;;;;17.13;100.00;98759.48;271790;1266;23126;-85
2023/06/27 07:16:21;;;;;;;8.70;6.50;;;;;;;17.09;100.00;98762.95;271692;1265;22440;-84
2023/06/27 07:22:22;;;;;;;8.20;5.50;;;;;;;17.11;100.00;98772.23;273672;1266;23062;-85
2023/06/27 07:28:24;;;;;;;11.60;5.50;;;;;;;17.15;100.00;98773.48;273661;1266;22483;-84
2023/06/27 07:34:26;;;;;;;8.60;5.60;;;;;;;17.18;100.00;98776.36;270525;1263;22533;-85
2023/06/27 07:40:27;;;;;;;11.90;5.60;;;;;;;17.23;100.00;98774.13;272901;1266;22221;-85
2023/06/27 07:46:30;;;;;;;10.10;5.50;;;;;;;17.27;100.00;98774.31;273519;1266;22218;-85
2023/06/27 07:52:32;;;;;;;13.10;5.70;;;;;;;17.37;100.00;98770.15;273201;1257;22395;-85
2023/06/27 07:58:33;;;;;;;9.70;5.40;;;;;;;17.44;100.00;98768.45;273776;1266;23024;-85
2023/06/27 08:04:35;;;;;;;7.00;5.20;;;;;;;17.47;100.00;98770.63;270894;1257;22527;-85
2023/06/27 08:10:36;;;;;;;7.10;5.30;;;;;;;17.53;100.00;98773.65;272373;1265;22207;-86
2023/06/27 08:16:38;;;;;;;9.20;5.20;;;;;;;17.71;100.00;98772.34;272884;1266;22525;-86
2023/06/27 08:22:40;;;;;;;7.40;5.40;;;;;;;17.87;100.00;98773.42;272538;1264;22565;-85
2023/06/27 08:28:42;;;;;;;8.60;5.10;;;;;;;17.83;100.00;98776.77;271522;1264;22379;-85
2023/06/27 08:34:44;;;;;;;7.20;4.90;;;;;;;17.77;100.00;98779.81;271205;1266;141305;-84
2023/06/27 08:40:46;;;;;;;11.60;5.60;;;;;;;17.78;100.00;98779.23;273140;1265;22427;-85
2023/06/27 08:46:50;;;;;;;14.10;5.40;;;;;;;17.84;100.00;98781.88;271354;1266;22391;-85
2023/06/27 08:52:56;;;;;;;9.60;5.60;;;;;;;17.91;100.00;98782.27;272068;1253;22290;-86
2023/06/27 08:59:02;;;;;;;9.40;5.70;;;;;;;17.96;100.00;98780.33;271531;1266;22557;-85
2023/06/27 09:05:05;;;;;;;7.80;4.90;;;;;;;18.14;100.00;98786.41;273665;1266;22426;-87
2023/06/27 09:11:09;;;;;;;10.20;5.60;;;;;;;18.22;100.00;98788.84;273678;1256;23711;-86
2023/06/27 09:17:11;;;;;;;9.40;6.00;;;;;;;18.23;100.00;98787.72;273618;1265;23105;-86
2023/06/27 09:23:14;;;;;;;10.50;6.80;;;;;;;18.32;100.00;98798.77;273699;1266;23451;-86
2023/06/27 09:29:16;;;;;;;7.00;6.20;;;;;;;18.29;100.00;98809.05;273792;1266;22581;-86
2023/06/27 09:35:18;;;;;;;12.30;7.00;;;;;;;18.16;100.00;98812.51;273303;1257;22280;-85
2023/06/27 09:41:20;;;;;;;10.40;6.70;;;;;;;18.11;100.00;98811.50;273183;1265;22490;-86
2023/06/27 09:47:24;;;;;;;11.00;6.90;;;;;;;18.26;100.00;98811.73;273780;1259;22313;-85
2023/06/27 09:53:28;;;;;;;8.70;6.00;;;;;;;18.36;100.00;98818.70;273713;1266;22409;-85
2023/06/27 09:59:29;;;;;;;11.10;5.50;;;;;;;18.31;100.00;98827.11;273624;1257;22447;-86
2023/06/27 10:05:31;;;;;;;10.70;5.50;;;;;;;18.45;100.00;98826.55;273807;1266;23304;-87
2023/06/27 10:11:33;;;;;;;10.10;6.10;;;;;;;18.77;100.00;98825.52;273489;1266;22362;-86
2023/06/27 10:17:35;;;;;;;11.20;5.70;;;;;;;19.02;100.00;98830.26;273582;1266;22161;-85
2023/06/27 10:23:40;;;;;;;7.00;5.20;;;;;;;19.43;100.00;98826.53;273581;1254;22207;-87
2023/06/27 10:30:04;;;;;;;8.10;4.70;;;;;;;19.67;99.86;98826.34;273705;1266;22259;-86
2023/06/27 10:36:23;;;;;;;8.60;4.40;;;;;;;19.73;98.91;98825.36;272710;1260;22985;-86
2023/06/27 10:42:25;;;;;;;10.20;4.00;;;;;;;20.00;99.54;98817.59;273629;1266;23285;-88
2023/06/27 10:48:26;;;;;;;9.20;4.10;;;;;;;20.47;98.85;98814.86;273118;1266;22517;-85
2023/06/27 10:54:28;;;;;;;5.10;3.20;;;;;;;20.73;97.82;98813.77;272422;1262;22549;-86
2023/06/27 11:01:28;;;;;;;;;;;;;;;;;;;;;
2023/06/27 11:08:00;;;;;;;6.60;3.90;;;;;;;20.26;94.75;98816.75;272010;1260;22573;-86
2023/06/27 11:14:06;;;;;;;8.30;3.60;;;;;;;19.94;94.48;98816.41;271323;1266;22374;-85
2023/06/27 11:20:09;;;;;;;11.60;4.20;;;;;;;19.88;93.23;98815.17;270784;1266;22576;-86
2023/06/27 11:26:11;;;;;;;10.60;3.40;;;;;;;20.03;92.86;98805.02;270841;1266;22531;-87
2023/06/27 11:32:14;;;;;;;4.60;3.00;;;;;;;20.23;91.96;98797.73;272711;1254;22644;-86
2023/06/27 11:38:16;;;;;;;6.50;2.70;;;;;;;20.37;90.40;98797.19;272560;1266;22536;-88
2023/06/27 11:44:18;;;;;;;7.30;3.30;;;;;;;20.57;90.30;98792.58;270336;1266;22721;-86
2023/06/27 11:50:20;;;;;;;6.00;2.80;;;;;;;20.67;89.60;98789.26;270138;1266;22370;-88
2023/06/27 11:56:22;;;;;;;5.90;3.30;;;;;;;20.89;89.30;98782.55;270432;1266;23307;-87
2023/06/27 12:02:29;;;;;;;9.40;3.60;;;;;;;21.20;89.12;98767.19;270593;1265;22524;-87
2023/06/27 12:08:33;;;;;;;5.90;2.70;;;;;;;21.56;87.30;98755.70;271279;1266;22605;-88
2023/06/27 12:14:35;;;;;;;4.80;2.10;;;;;;;21.67;84.90;98746.54;272861;1266;22589;-86
2023/06/27 12:20:44;;;;;;;5.40;2.20;;;;;;;21.82;83.20;98740.60;273336;1266;23318;-86
2023/06/27 12:26:47;;;;;;;7.00;1.80;;;;;;;21.96;82.68;98727.55;273750;1266;22374;-85
2023/06/27 12:32:48;;;;;;;3.80;1.90;;;;;;;21.87;79.67;98723.05;272116;1266;22817;-87
2023/06/27 12:38:51;;;;;;;3.60;1.40;;;;;;;21.56;75.65;98728.48;270850;1266;27585;-89
2023/06/27 12:44:55;;;;;;;4.90;2.00;;;;;;;21.44;74.79;98725.02;273469;1263;22558;-87
2023/06/27 12:50:57;;;;;;;3.40;1.50;;;;;;;21.36;73.23;98722.45;269964;1266;23054;-85
2023/06/27 12:56:59;;;;;;;3.10;1.60;;;;;;;21.25;70.52;98719.75;269627;1266;22534;-87
2023/06/27 13:03:00;;;;;;;8.70;1.70;;;;;;;21.25;71.05;98721.27;270084;1265;22414;-86
2023/06/27 13:09:03;;;;;;;2.20;1.40;;;;;;;21.23;69.06;98728.67;270133;1265;23234;-87
2023/06/27 13:15:08;;;;;;;5.20;1.50;;;;;;;21.14;68.13;98720.73;270359;1266;22626;-85
2023/06/27 13:21:10;;;;;;;4.20;1.80;;;;;;;21.07;67.31;98716.05;273103;1266;22444;-87
2023/06/27 13:27:13;;;;;;;5.10;1.70;;;;;;;21.07;66.69;98724.39;273681;1266;22199;-88
2023/06/27 13:33:15;;;;;;;5.20;1.70;;;;;;;20.88;66.23;98716.74;273680;1254;22553;-87
2023/06/27 13:39:20;;;;;;;5.40;2.00;;;;;;;20.73;66.58;98706.38;273679;1266;23109;-88
2023/06/27 13:45:22;;;;;;;3.70;1.40;;;;;;;20.65;67.79;98707.94;272741;1266;25256;-86
2023/06/27 13:51:24;;;;;;;2.60;1.60;;;;;;;20.64;67.28;98709.72;272328;1266;23056;-86
2023/06/27 13:57:25;;;;;;;4.30;1.50;;;;;;;20.69;66.55;98708.27;273187;1266;22561;-87
2023/06/27 14:03:29;;;;;;;4.60;1.70;;;;;;;20.75;66.31;98704.81;270791;1251;22547;-88
2023/06/27 14:09:31;;;;;;;4.90;2.30;;;;;;;20.80;66.13;98699.33;270347;1266;22654;-87
2023/06/27 14:15:33;;;;;;;5.50;2.00;;;;;;;20.94;66.04;98700.52;271746;1266;22633;-86
2023/06/27 14:21:36;;;;;;;7.60;1.70;;;;;;;21.28;65.51;98698.41;273239;1266;22692;-88
2023/06/27 14:27:38;;;;;;;3.90;1.60;;;;;;;21.35;65.25;98691.09;273532;1266;24021;-87
2023/06/27 14:33:40;;;;;;;5.50;1.80;;;;;;;21.26;64.70;98685.70;273542;1256;22203;-88
2023/06/27 14:39:41;;;;;;;4.70;1.80;;;;;;;21.20;65.08;98679.88;272992;1266;22541;-86
2023/06/27 14:45:43;;;;;;;4.00;2.10;;;;;;;21.13;64.72;98680.38;271947;1263;23396;-88
2023/06/27 14:51:45;;;;;;;4.30;1.80;;;;;;;21.11;64.91;98684.58;273612;1266;22190;-88
2023/06/27 14:57:47;;;;;;;4.20;1.70;;;;;;;21.09;64.86;98679.73;273651;1266;23068;-88
2023/06/27 15:03:50;;;;;;;3.80;1.50;;;;;;;20.83;63.68;98687.68;273609;1266;22445;-87
2023/06/27 15:09:52;;;;;;;3.40;1.50;;;;;;;20.36;62.23;98694.29;272749;1265;22378;-87
2023/06/27 15:15:53;;;;;;;11.70;1.50;;;;;;;20.02;61.78;98686.23;273544;1266;23341;-87
2023/06/27 15:21:56;;;;;;;6.00;1.40;;;;;;;19.95;61.43;98684.77;273518;1266;22979;-88
2023/06/27 15:27:58;;;;;;;4.50;1.40;;;;;;;20.09;61.29;98682.12;273447;1263;22479;-86
2023/06/27 15:34:02;;;;;;;3.80;1.20;;;;;;;20.21;60.18;98681.07;273627;1265;22210;-88
2023/06/27 15:40:05;;;;;;;4.40;1.60;;;;;;;20.26;59.62;98685.31;272646;1252;22579;-86
2023/06/27 15:46:06;;;;;;;2.40;1.10;;;;;;;20.31;59.57;98681.36;271388;1266;23770;-87
2023/06/27 15:52:08;;;;;;;4.50;1.50;;;;;;;20.37;59.49;98684.98;270450;1266;22550;-88
2023/06/27 15:58:11;;;;;;;3.00;1.40;;;;;;;20.44;59.29;98681.16;270169;1266;22553;-87
2023/06/27 16:04:13;;;;;;;3.10;1.20;;;;;;;20.43;58.16;98677.79;270451;1266;22574;-88
2023/06/27 16:10:54;;;;;;;4.40;1.60;;;;;;;20.29;57.40;98682.29;271388;1266;22551;-87
2023/06/27 16:17:05;;;;;;;3.80;1.40;;;;;;;20.21;57.21;98679.80;273725;1266;22268;-87
2023/06/27 16:23:07;;;;;;;3.80;1.40;;;;;;;20.18;57.52;98677.11;273231;1265;22537;-89
2023/06/27 16:29:08;;;;;;;4.00;1.70;;;;;;;20.07;57.56;98675.52;273755;1266;23887;-88
2023/06/27 16:35:10;;;;;;;6.00;1.70;;;;;;;20.04;57.03;98678.64;273732;1266;23154;-88
2023/06/27 16:41:12;;;;;;;6.40;1.60;;;;;;;20.09;56.65;98682.13;273784;1266;23500;-86
2023/06/27 16:47:14;;;;;;;3.30;1.40;;;;;;;20.05;56.30;98686.77;273775;1254;22172;-85
2023/06/27 16:53:15;;;;;;;2.10;1.20;;;;;;;19.93;56.44;98687.40;273750;1266;22397;-85
2023/06/27 16:59:17;;;;;;;3.60;1.40;;;;;;;19.81;56.26;98686.75;270294;1266;25225;-86
2023/06/27 17:05:19;;;;;;;2.80;1.60;;;;;;;19.73;55.67;98688.66;272024;1266;22404;-86
2023/06/27 17:11:21;;;;;;;2.70;1.60;;;;;;;19.64;55.32;98689.50;273226;1266;23750;-86
2023/06/27 17:17:23;;;;;;;3.00;1.30;;;;;;;19.50;55.37;98694.60;272166;1266;22539;-86
2023/06/27 17:23:25;;;;;;;2.90;1.20;;;;;;;19.36;55.42;98693.96;273407;1266;23249;-87
2023/06/27 17:29:27;;;;;;;6.60;1.60;;;;;;;19.25;55.52;98697.20;272038;1257;22552;-87
2023/06/27 17:35:30;;;;;;;2.60;1.10;;;;;;;19.15;55.72;98709.21;270672;1258;23952;-88
2023/06/27 17:41:31;;;;;;;3.20;1.30;;;;;;;19.01;55.71;98713.73;272022;1257;22204;-88
2023/06/27 17:47:33;;;;;;;3.50;1.50;;;;;;;18.83;56.15;98724.91;273835;1266;22221;-87
2023/06/27 17:53:35;;;;;;;5.30;2.30;;;;;;;18.74;56.49;98727.66;270825;1266;22567;-85
2023/06/27 17:59:37;;;;;;;5.20;1.30;;;;;;;18.68;56.62;98738.52;270812;1266;22821;-87
2023/06/27 18:05:39;;;;;;;3.80;1.50;;;;;;;18.57;57.05;98753.52;272767;1256;23445;-87
2023/06/27 18:11:41;;;;;;;4.20;1.40;;;;;;;18.42;57.23;98753.39;273668;1266;22244;-86
2023/06/27 18:17:43;;;;;;;4.40;1.60;;;;;;;18.27;57.33;98757.79;273671;1265;22457;-87
2023/06/27 18:23:45;;;;;;;5.00;1.60;;;;;;;18.16;56.71;98760.42;273664;1266;22528;-87
2023/06/27 18:29:50;;;;;;;3.30;1.40;;;;;;;18.06;56.46;98758.98;273739;1266;23439;-87
2023/06/27 18:35:52;;;;;;;6.80;1.90;;;;;;;17.95;57.02;98758.61;272743;1266;22172;-86
2023/06/27 18:41:53;;;;;;;3.50;1.20;;;;;;;17.81;57.52;98760.89;273674;1257;22205;-87
2023/06/27 18:47:56;;;;;;;5.50;1.50;;;;;;;17.66;57.94;98763.89;271228;1266;25078;-87
2023/06/27 18:53:58;;;;;;;4.40;1.70;;;;;;;17.48;58.48;98772.88;273635;1265;22392;-87
2023/06/27 19:00:00;;;;;;;7.50;1.50;;;;;;;17.37;59.61;98783.20;273738;1266;22463;-87
2023/06/27 19:06:04;;;;;;;2.20;1.30;;;;;;;17.22;61.31;98786.64;273788;1266;22181;-87
2023/06/27 19:12:06;;;;;;;4.80;1.90;;;;;;;17.08;61.94;98788.33;272380;1266;22513;-86
2023/06/27 19:18:08;;;;;;;4.00;1.70;;;;;;;16.94;63.09;98787.55;270492;1266;22634;-87
2023/06/27 19:24:11;;;;;;;3.70;1.50;;;;;;;16.81;64.39;98789.52;272487;1265;22285;-88
2023/06/27 19:30:13;;;;;;;6.90;1.80;;;;;;;16.64;65.60;98795.26;272995;1265;22402;-86
2023/06/27 19:36:14;;;;;;;5.70;1.50;;;;;;;16.48;65.58;98802.61;273648;1262;22391;-87
2023/06/27 19:42:16;;;;;;;7.10;2.00;;;;;;;16.38;65.78;98811.19;273701;1262;22393;-86
2023/06/27 19:48:19;;;;;;;3.90;1.90;;;;;;;16.18;66.69;98809.91;273597;1265;23544;-86
2023/06/27 19:54:21;;;;;;;9.50;2.50;;;;;;;16.03;68.18;98811.69;272195;1266;25509;-86
2023/06/27 20:00:24;;;;;;;5.20;2.20;;;;;;;15.96;68.75;98820.94;264490;1266;10002113;-87
2023/06/27 20:06:26;;;;;;;8.30;2.50;;;;;;;15.84;69.68;98828.51;272043;1263;22340;-87
2023/06/27 20:12:28;;;;;;;12.90;3.40;;;;;;;15.77;70.93;98833.98;271562;1266;22342;-86
2023/06/27 20:18:29;;;;;;;9.10;2.70;;;;;;;15.67;71.32;98834.55;272998;1266;22402;-86
2023/06/27 20:24:31;;;;;;;7.20;2.70;;;;;;;15.56;71.99;98836.09;273574;1256;22371;-86
2023/06/27 20:30:35;;;;;;;8.60;2.70;;;;;;;15.49;72.99;98832.86;272249;1266;23332;-87
2023/06/27 20:36:36;;;;;;;7.50;1.70;;;;;;;15.41;72.40;98839.10;273649;1265;231361;-86
2023/06/27 20:42:38;;;;;;;5.30;1.80;;;;;;;15.33;72.02;98838.52;273711;1256;22646;-86
2023/06/27 20:48:41;;;;;;;5.20;2.00;;;;;;;15.20;73.03;98838.89;273562;1253;22449;-87
2023/06/27 20:54:42;;;;;;;9.10;1.80;;;;;;;15.14;74.07;98837.30;273886;1266;22170;-86
2023/06/27 21:00:44;;;;;;;9.30;2.60;;;;;;;15.10;73.65;98839.31;273809;1266;23099;-86
2023/06/27 21:06:46;;;;;;;9.30;2.90;;;;;;;14.99;72.99;98846.81;273848;1253;22503;-86
2023/06/27 21:12:48;;;;;;;4.80;1.50;;;;;;;14.88;73.54;98849.90;273759;1256;22432;-86
2023/06/27 21:18:49;;;;;;;6.00;1.90;;;;;;;14.70;74.40;98851.07;270294;1266;23345;-86
2023/06/27 21:24:51;;;;;;;7.80;2.10;;;;;;;14.62;74.98;98849.48;271048;1266;23031;-85
2023/06/27 21:30:53;;;;;;;8.10;2.80;;;;;;;14.55;76.07;98851.19;270476;1266;22985;-86
2023/06/27 21:36:56;;;;;;;6.50;2.10;;;;;;;14.45;76.86;98850.95;270526;1266;22543;-85
2023/06/27 21:42:58;;;;;;;6.50;2.40;;;;;;;14.36;77.44;98852.88;272285;1266;22425;-86
2023/06/27 21:49:00;;;;;;;7.10;2.80;;;;;;;14.27;77.89;98851.52;272122;1253;22550;-85
2023/06/27 21:55:02;;;;;;;7.60;2.40;;;;;;;14.12;78.17;98847.56;270091;1265;22517;-85
2023/06/27 22:01:04;;;;;;;10.90;2.50;;;;;;;13.98;78.94;98845.20;271685;1264;23102;-86
2023/06/27 22:07:06;;;;;;;7.80;2.80;;;;;;;13.94;79.79;98844.83;271310;1266;22482;-86
2023/06/27 22:13:07;;;;;;;5.10;2.20;;;;;;;13.93;79.99;98844.11;271221;1266;22430;-86
2023/06/27 22:19:09;;;;;;;9.60;2.40;;;;;;;13.91;79.70;98843.36;273809;1266;22489;-86
2023/06/27 22:25:11;;;;;;;5.30;2.50;;;;;;;13.88;79.72;98842.11;273736;1266;23658;-86
2023/06/27 22:31:13;;;;;;;5.50;2.30;;;;;;;13.85;79.88;98839.05;273420;1266;22542;-86
2023/06/27 22:37:14;;;;;;;7.20;2.20;;;;;;;13.76;80.50;98836.81;271028;1266;22567;-86
2023/06/27 22:43:16;;;;;;;6.40;2.00;;;;;;;13.71;81.34;98836.98;273325;1254;22444;-86
2023/06/27 22:49:18;;;;;;;4.80;2.30;;;;;;;13.68;81.70;98839.27;271719;1266;22664;-86
2023/06/27 22:55:20;;;;;;;5.50;1.90;;;;;;;13.66;82.30;98843.77;271954;1266;22282;-87
2023/06/27 23:01:21;;;;;;;4.60;1.90;;;;;;;13.62;82.71;98844.02;273912;1266;23318;-86
2023/06/27 23:07:23;;;;;;;5.30;2.00;;;;;;;13.57;82.80;98848.27;273749;1261;22434;-86
2023/06/27 23:13:25;;;;;;;7.00;2.40;;;;;;;13.51;82.87;98846.41;273839;1266;22451;-86
2023/06/27 23:19:28;;;;;;;5.00;2.40;;;;;;;13.46;82.83;98847.60;273790;1256;23260;-86
2023/06/27 23:25:42;;;;;;;8.90;2.00;;;;;;;13.43;83.03;98842.42;273816;1266;22388;-87
2023/06/27 23:31:44;;;;;;;4.50;1.80;;;;;;;13.40;83.71;98838.20;273963;1256;22350;-86
2023/06/27 23:37:46;;;;;;;4.60;1.90;;;;;;;13.32;83.75;98840.89;273777;1266;22493;-87
2023/06/27 23:43:48;;;;;;;6.30;2.30;;;;;;;13.25;83.77;98850.09;273822;1266;22392;-86
2023/06/27 23:49:50;;;;;;;4.50;1.90;;;;;;;13.18;83.98;98856.77;273616;1265;22377;-86
2023/06/27 23:55:52;;;;;;;3.10;1.60;;;;;;;13.13;84.02;98855.05;273241;1266;22497;-86
